sensor_id;sensor_type;location;lat;lon;timestamp;P1;durP1;ratioP1;P2;durP2;ratioP2
42288;SDS011;30230;47.520;19.016;2022-08-14T00:01:44;6.13;;;3.55;;
42288;SDS011;30230;47.520;19.016;2022-08-14T00:03:44;5.78;;;3.25;;
42288;SDS011;30230;47.520;19.016;2022-08-14T00:05:45;5.82;;;3.00;;
42288;SDS011;30230;47.520;19.016;2022-08-14T00:07:46;4.68;;;2.95;;
42288;SDS011;30230;47.520;19.016;2022-08-14T00:09:47;5.75;;;3.25;;
42288;SDS011;30230;47.520;19.016;2022-08-14T00:11:48;5.35;;;3.20;;
42288;SDS011;30230;47.520;19.016;2022-08-14T00:13:49;6.03;;;3.25;;
42288;SDS011;30230;47.520;19.016;2022-08-14T00:15:50;5.82;;;3.05;;
42288;SDS011;30230;47.520;19.016;2022-08-14T00:17:51;6.50;;;3.00;;
42288;SDS011;30230;47.520;19.016;2022-08-14T00:19:52;5.50;;;3.30;;
42288;SDS011;30230;47.520;19.016;2022-08-14T00:21:53;5.80;;;3.13;;
42288;SDS011;30230;47.520;19.016;2022-08-14T00:23:53;6.05;;;3.17;;
42288;SDS011;30230;47.520;19.016;2022-08-14T00:27:56;4.82;;;2.42;;
42288;SDS011;30230;47.520;19.016;2022-08-14T00:29:56;5.30;;;2.80;;
42288;SDS011;30230;47.520;19.016;2022-08-14T00:31:57;5.55;;;3.33;;
42288;SDS011;30230;47.520;19.016;2022-08-14T00:33:57;4.45;;;2.50;;
42288;SDS011;30230;47.520;19.016;2022-08-14T00:35:58;4.30;;;2.80;;
42288;SDS011;30230;47.520;19.016;2022-08-14T00:37:58;4.47;;;2.80;;
42288;SDS011;30230;47.520;19.016;2022-08-14T00:39:59;7.22;;;3.45;;
42288;SDS011;30230;47.520;19.016;2022-08-14T00:42:00;4.53;;;3.00;;
42288;SDS011;30230;47.520;19.016;2022-08-14T00:44:01;4.93;;;2.70;;
42288;SDS011;30230;47.520;19.016;2022-08-14T00:46:03;5.53;;;3.22;;
42288;SDS011;30230;47.520;19.016;2022-08-14T00:48:05;5.15;;;2.80;;
42288;SDS011;30230;47.520;19.016;2022-08-14T00:50:06;5.80;;;2.67;;
42288;SDS011;30230;47.520;19.016;2022-08-14T00:52:12;4.10;;;2.63;;
42288;SDS011;30230;47.520;19.016;2022-08-14T00:54:14;4.10;;;2.80;;
42288;SDS011;30230;47.520;19.016;2022-08-14T00:56:16;4.50;;;2.95;;
42288;SDS011;30230;47.520;19.016;2022-08-14T00:58:20;5.35;;;2.88;;
42288;SDS011;30230;47.520;19.016;2022-08-14T01:00:30;4.22;;;2.70;;
42288;SDS011;30230;47.520;19.016;2022-08-14T01:02:30;4.57;;;2.92;;
42288;SDS011;30230;47.520;19.016;2022-08-14T01:04:32;5.55;;;3.55;;
42288;SDS011;30230;47.520;19.016;2022-08-14T01:06:33;5.47;;;2.97;;
42288;SDS011;30230;47.520;19.016;2022-08-14T01:08:34;4.75;;;2.92;;
42288;SDS011;30230;47.520;19.016;2022-08-14T01:10:37;5.97;;;3.38;;
42288;SDS011;30230;47.520;19.016;2022-08-14T01:12:50;5.13;;;3.10;;
42288;SDS011;30230;47.520;19.016;2022-08-14T01:14:50;5.03;;;3.40;;
42288;SDS011;30230;47.520;19.016;2022-08-14T01:16:54;5.40;;;3.03;;
42288;SDS011;30230;47.520;19.016;2022-08-14T01:18:54;4.65;;;2.83;;
42288;SDS011;30230;47.520;19.016;2022-08-14T01:21:14;7.15;;;3.30;;
42288;SDS011;30230;47.520;19.016;2022-08-14T01:23:16;4.68;;;3.05;;
42288;SDS011;30230;47.520;19.016;2022-08-14T01:25:16;4.70;;;3.17;;
42288;SDS011;30230;47.520;19.016;2022-08-14T01:27:17;4.75;;;3.13;;
42288;SDS011;30230;47.520;19.016;2022-08-14T01:29:19;3.95;;;3.05;;
42288;SDS011;30230;47.520;19.016;2022-08-14T01:31:21;11.48;;;2.78;;
42288;SDS011;30230;47.520;19.016;2022-08-14T01:33:29;4.28;;;2.70;;
42288;SDS011;30230;47.520;19.016;2022-08-14T01:35:30;4.55;;;3.10;;
42288;SDS011;30230;47.520;19.016;2022-08-14T01:37:31;8.85;;;3.45;;
42288;SDS011;30230;47.520;19.016;2022-08-14T01:39:31;6.68;;;2.92;;
42288;SDS011;30230;47.520;19.016;2022-08-14T01:41:32;4.45;;;3.15;;
42288;SDS011;30230;47.520;19.016;2022-08-14T01:43:42;4.00;;;2.63;;
42288;SDS011;30230;47.520;19.016;2022-08-14T01:47:50;6.28;;;2.58;;
42288;SDS011;30230;47.520;19.016;2022-08-14T01:49:51;6.57;;;2.67;;
42288;SDS011;30230;47.520;19.016;2022-08-14T01:51:53;4.47;;;2.70;;
42288;SDS011;30230;47.520;19.016;2022-08-14T01:54:00;4.38;;;2.53;;
42288;SDS011;30230;47.520;19.016;2022-08-14T01:56:04;3.50;;;2.53;;
42288;SDS011;30230;47.520;19.016;2022-08-14T01:58:05;3.58;;;2.38;;
42288;SDS011;30230;47.520;19.016;2022-08-14T02:00:11;4.63;;;2.60;;
42288;SDS011;30230;47.520;19.016;2022-08-14T02:02:15;5.90;;;2.80;;
42288;SDS011;30230;47.520;19.016;2022-08-14T02:04:16;5.57;;;2.90;;
42288;SDS011;30230;47.520;19.016;2022-08-14T02:06:20;5.22;;;2.70;;
42288;SDS011;30230;47.520;19.016;2022-08-14T02:08:21;3.47;;;2.53;;
42288;SDS011;30230;47.520;19.016;2022-08-14T02:10:22;4.32;;;2.63;;
42288;SDS011;30230;47.520;19.016;2022-08-14T02:12:23;4.47;;;2.80;;
42288;SDS011;30230;47.520;19.016;2022-08-14T02:14:23;5.00;;;2.90;;
42288;SDS011;30230;47.520;19.016;2022-08-14T02:16:25;5.18;;;2.72;;
42288;SDS011;30230;47.520;19.016;2022-08-14T02:18:32;5.50;;;3.15;;
42288;SDS011;30230;47.520;19.016;2022-08-14T02:20:33;3.95;;;2.90;;
42288;SDS011;30230;47.520;19.016;2022-08-14T02:22:33;4.85;;;2.85;;
42288;SDS011;30230;47.520;19.016;2022-08-14T02:24:34;4.47;;;2.88;;
42288;SDS011;30230;47.520;19.016;2022-08-14T02:26:37;5.40;;;2.60;;
42288;SDS011;30230;47.520;19.016;2022-08-14T02:28:40;3.65;;;2.30;;
42288;SDS011;30230;47.520;19.016;2022-08-14T02:30:40;4.57;;;2.70;;
42288;SDS011;30230;47.520;19.016;2022-08-14T02:32:41;6.13;;;2.70;;
42288;SDS011;30230;47.520;19.016;2022-08-14T02:34:41;3.08;;;2.13;;
42288;SDS011;30230;47.520;19.016;2022-08-14T02:36:42;4.20;;;2.80;;
42288;SDS011;30230;47.520;19.016;2022-08-14T02:38:43;3.00;;;2.38;;
42288;SDS011;30230;47.520;19.016;2022-08-14T02:40:43;5.13;;;2.47;;
42288;SDS011;30230;47.520;19.016;2022-08-14T02:42:44;3.97;;;2.45;;
42288;SDS011;30230;47.520;19.016;2022-08-14T02:44:45;4.60;;;2.55;;
42288;SDS011;30230;47.520;19.016;2022-08-14T02:46:46;3.70;;;2.53;;
42288;SDS011;30230;47.520;19.016;2022-08-14T02:48:47;4.93;;;2.40;;
42288;SDS011;30230;47.520;19.016;2022-08-14T02:50:47;4.35;;;2.40;;
42288;SDS011;30230;47.520;19.016;2022-08-14T02:52:48;4.68;;;2.58;;
42288;SDS011;30230;47.520;19.016;2022-08-14T02:54:48;4.13;;;2.70;;
42288;SDS011;30230;47.520;19.016;2022-08-14T02:56:49;5.28;;;2.60;;
42288;SDS011;30230;47.520;19.016;2022-08-14T02:58:50;2.45;;;1.92;;
42288;SDS011;30230;47.520;19.016;2022-08-14T03:00:51;3.38;;;2.50;;
42288;SDS011;30230;47.520;19.016;2022-08-14T03:02:53;3.78;;;2.30;;
42288;SDS011;30230;47.520;19.016;2022-08-14T03:04:53;3.78;;;2.45;;
42288;SDS011;30230;47.520;19.016;2022-08-14T03:06:54;3.85;;;2.45;;
42288;SDS011;30230;47.520;19.016;2022-08-14T03:08:55;6.80;;;2.30;;
42288;SDS011;30230;47.520;19.016;2022-08-14T03:10:55;3.92;;;2.28;;
42288;SDS011;30230;47.520;19.016;2022-08-14T03:12:56;4.43;;;2.42;;
42288;SDS011;30230;47.520;19.016;2022-08-14T03:14:56;4.18;;;2.50;;
42288;SDS011;30230;47.520;19.016;2022-08-14T03:16:57;5.32;;;2.75;;
42288;SDS011;30230;47.520;19.016;2022-08-14T03:18:58;3.92;;;2.63;;
42288;SDS011;30230;47.520;19.016;2022-08-14T03:21:00;4.40;;;1.98;;
42288;SDS011;30230;47.520;19.016;2022-08-14T03:23:06;7.47;;;2.72;;
42288;SDS011;30230;47.520;19.016;2022-08-14T03:25:08;3.42;;;2.30;;
42288;SDS011;30230;47.520;19.016;2022-08-14T03:27:10;3.83;;;2.60;;
42288;SDS011;30230;47.520;19.016;2022-08-14T03:29:14;5.68;;;2.58;;
42288;SDS011;30230;47.520;19.016;2022-08-14T03:31:19;2.63;;;2.22;;
42288;SDS011;30230;47.520;19.016;2022-08-14T03:33:22;4.28;;;2.58;;
42288;SDS011;30230;47.520;19.016;2022-08-14T03:35:23;5.05;;;2.53;;
42288;SDS011;30230;47.520;19.016;2022-08-14T03:37:23;7.57;;;2.88;;
42288;SDS011;30230;47.520;19.016;2022-08-14T03:39:25;3.03;;;2.63;;
42288;SDS011;30230;47.520;19.016;2022-08-14T03:41:26;4.10;;;2.70;;
42288;SDS011;30230;47.520;19.016;2022-08-14T03:43:27;2.93;;;2.47;;
42288;SDS011;30230;47.520;19.016;2022-08-14T03:45:28;5.78;;;2.28;;
42288;SDS011;30230;47.520;19.016;2022-08-14T03:47:28;4.03;;;2.60;;
42288;SDS011;30230;47.520;19.016;2022-08-14T03:49:29;4.07;;;2.70;;
42288;SDS011;30230;47.520;19.016;2022-08-14T03:51:30;3.95;;;2.88;;
42288;SDS011;30230;47.520;19.016;2022-08-14T03:53:31;4.15;;;3.08;;
42288;SDS011;30230;47.520;19.016;2022-08-14T03:55:35;3.75;;;2.35;;
42288;SDS011;30230;47.520;19.016;2022-08-14T03:57:40;3.33;;;2.60;;
42288;SDS011;30230;47.520;19.016;2022-08-14T03:59:41;4.30;;;2.92;;
42288;SDS011;30230;47.520;19.016;2022-08-14T04:01:42;5.20;;;3.17;;
42288;SDS011;30230;47.520;19.016;2022-08-14T04:03:46;4.85;;;3.15;;
42288;SDS011;30230;47.520;19.016;2022-08-14T04:05:47;3.30;;;2.45;;
42288;SDS011;30230;47.520;19.016;2022-08-14T04:07:47;6.15;;;2.60;;
42288;SDS011;30230;47.520;19.016;2022-08-14T04:09:48;3.50;;;2.45;;
42288;SDS011;30230;47.520;19.016;2022-08-14T04:11:49;4.85;;;2.65;;
42288;SDS011;30230;47.520;19.016;2022-08-14T04:13:49;4.00;;;2.88;;
42288;SDS011;30230;47.520;19.016;2022-08-14T04:15:50;5.57;;;3.15;;
42288;SDS011;30230;47.520;19.016;2022-08-14T04:17:51;5.82;;;2.92;;
42288;SDS011;30230;47.520;19.016;2022-08-14T04:19:52;6.03;;;3.30;;
42288;SDS011;30230;47.520;19.016;2022-08-14T04:21:53;6.53;;;3.20;;
42288;SDS011;30230;47.520;19.016;2022-08-14T04:23:54;6.10;;;2.83;;
42288;SDS011;30230;47.520;19.016;2022-08-14T04:25:59;5.88;;;2.95;;
42288;SDS011;30230;47.520;19.016;2022-08-14T04:30:05;7.00;;;3.15;;
42288;SDS011;30230;47.520;19.016;2022-08-14T04:32:09;4.57;;;2.80;;
42288;SDS011;30230;47.520;19.016;2022-08-14T04:34:10;3.90;;;2.67;;
42288;SDS011;30230;47.520;19.016;2022-08-14T04:36:11;5.43;;;2.60;;
42288;SDS011;30230;47.520;19.016;2022-08-14T04:38:11;5.30;;;2.88;;
42288;SDS011;30230;47.520;19.016;2022-08-14T04:40:30;5.85;;;2.70;;
42288;SDS011;30230;47.520;19.016;2022-08-14T04:42:49;5.28;;;2.80;;
42288;SDS011;30230;47.520;19.016;2022-08-14T04:45:08;4.18;;;2.47;;
42288;SDS011;30230;47.520;19.016;2022-08-14T04:47:09;4.97;;;3.08;;
42288;SDS011;30230;47.520;19.016;2022-08-14T04:49:28;4.18;;;2.97;;
42288;SDS011;30230;47.520;19.016;2022-08-14T04:51:28;4.38;;;2.58;;
42288;SDS011;30230;47.520;19.016;2022-08-14T04:53:29;5.05;;;2.90;;
42288;SDS011;30230;47.520;19.016;2022-08-14T04:55:30;5.15;;;3.15;;
42288;SDS011;30230;47.520;19.016;2022-08-14T04:57:32;4.30;;;2.45;;
42288;SDS011;30230;47.520;19.016;2022-08-14T04:59:33;5.73;;;3.00;;
42288;SDS011;30230;47.520;19.016;2022-08-14T05:01:34;5.93;;;3.05;;
42288;SDS011;30230;47.520;19.016;2022-08-14T05:03:35;4.07;;;2.72;;
42288;SDS011;30230;47.520;19.016;2022-08-14T05:05:37;5.38;;;3.03;;
42288;SDS011;30230;47.520;19.016;2022-08-14T05:07:38;4.13;;;2.83;;
42288;SDS011;30230;47.520;19.016;2022-08-14T05:09:39;3.25;;;2.25;;
42288;SDS011;30230;47.520;19.016;2022-08-14T05:11:39;4.72;;;2.83;;
42288;SDS011;30230;47.520;19.016;2022-08-14T05:13:40;5.40;;;3.05;;
42288;SDS011;30230;47.520;19.016;2022-08-14T05:15:42;7.70;;;2.80;;
42288;SDS011;30230;47.520;19.016;2022-08-14T05:17:45;3.53;;;2.33;;
42288;SDS011;30230;47.520;19.016;2022-08-14T05:19:46;5.32;;;3.20;;
42288;SDS011;30230;47.520;19.016;2022-08-14T05:21:46;5.05;;;3.38;;
42288;SDS011;30230;47.520;19.016;2022-08-14T05:23:47;3.83;;;2.63;;
42288;SDS011;30230;47.520;19.016;2022-08-14T05:25:49;5.22;;;3.15;;
42288;SDS011;30230;47.520;19.016;2022-08-14T05:27:53;4.35;;;2.88;;
42288;SDS011;30230;47.520;19.016;2022-08-14T05:29:59;5.28;;;3.15;;
42288;SDS011;30230;47.520;19.016;2022-08-14T05:32:04;5.30;;;3.45;;
42288;SDS011;30230;47.520;19.016;2022-08-14T05:34:07;4.15;;;2.90;;
42288;SDS011;30230;47.520;19.016;2022-08-14T05:36:09;5.70;;;2.90;;
42288;SDS011;30230;47.520;19.016;2022-08-14T05:38:11;5.78;;;3.50;;
42288;SDS011;30230;47.520;19.016;2022-08-14T05:40:13;4.25;;;2.72;;
42288;SDS011;30230;47.520;19.016;2022-08-14T05:42:13;4.22;;;3.17;;
42288;SDS011;30230;47.520;19.016;2022-08-14T05:44:14;5.75;;;3.28;;
42288;SDS011;30230;47.520;19.016;2022-08-14T05:46:15;4.82;;;3.25;;
42288;SDS011;30230;47.520;19.016;2022-08-14T05:48:23;6.22;;;3.67;;
42288;SDS011;30230;47.520;19.016;2022-08-14T05:50:24;5.03;;;2.88;;
42288;SDS011;30230;47.520;19.016;2022-08-14T05:52:25;4.55;;;3.38;;
42288;SDS011;30230;47.520;19.016;2022-08-14T05:54:25;5.32;;;3.25;;
42288;SDS011;30230;47.520;19.016;2022-08-14T05:56:26;5.10;;;3.08;;
42288;SDS011;30230;47.520;19.016;2022-08-14T05:58:26;5.47;;;3.63;;
42288;SDS011;30230;47.520;19.016;2022-08-14T06:00:28;8.10;;;2.78;;
42288;SDS011;30230;47.520;19.016;2022-08-14T06:02:30;5.50;;;3.42;;
42288;SDS011;30230;47.520;19.016;2022-08-14T06:04:31;4.80;;;3.08;;
42288;SDS011;30230;47.520;19.016;2022-08-14T06:06:32;5.03;;;3.17;;
42288;SDS011;30230;47.520;19.016;2022-08-14T06:08:32;7.15;;;3.08;;
42288;SDS011;30230;47.520;19.016;2022-08-14T06:10:33;8.13;;;3.28;;
42288;SDS011;30230;47.520;19.016;2022-08-14T06:12:34;8.23;;;3.00;;
42288;SDS011;30230;47.520;19.016;2022-08-14T06:14:35;6.72;;;2.95;;
42288;SDS011;30230;47.520;19.016;2022-08-14T06:16:36;3.35;;;2.55;;
42288;SDS011;30230;47.520;19.016;2022-08-14T06:18:37;4.07;;;2.63;;
42288;SDS011;30230;47.520;19.016;2022-08-14T06:20:38;4.93;;;2.40;;
42288;SDS011;30230;47.520;19.016;2022-08-14T06:22:39;4.22;;;2.80;;
42288;SDS011;30230;47.520;19.016;2022-08-14T06:24:40;4.75;;;2.63;;
42288;SDS011;30230;47.520;19.016;2022-08-14T06:26:40;4.95;;;3.08;;
42288;SDS011;30230;47.520;19.016;2022-08-14T06:28:41;3.80;;;2.60;;
42288;SDS011;30230;47.520;19.016;2022-08-14T06:30:41;4.28;;;2.90;;
42288;SDS011;30230;47.520;19.016;2022-08-14T06:32:42;5.70;;;3.08;;
42288;SDS011;30230;47.520;19.016;2022-08-14T06:34:43;6.38;;;2.85;;
42288;SDS011;30230;47.520;19.016;2022-08-14T06:36:43;5.65;;;3.00;;
42288;SDS011;30230;47.520;19.016;2022-08-14T06:38:44;5.93;;;3.47;;
42288;SDS011;30230;47.520;19.016;2022-08-14T06:40:45;5.63;;;3.55;;
42288;SDS011;30230;47.520;19.016;2022-08-14T06:42:46;5.95;;;3.10;;
42288;SDS011;30230;47.520;19.016;2022-08-14T06:44:47;4.32;;;2.90;;
42288;SDS011;30230;47.520;19.016;2022-08-14T06:46:47;3.42;;;2.50;;
42288;SDS011;30230;47.520;19.016;2022-08-14T06:48:48;4.82;;;2.83;;
42288;SDS011;30230;47.520;19.016;2022-08-14T06:50:49;8.45;;;2.88;;
42288;SDS011;30230;47.520;19.016;2022-08-14T06:52:51;5.32;;;2.78;;
42288;SDS011;30230;47.520;19.016;2022-08-14T06:54:51;4.05;;;2.75;;
42288;SDS011;30230;47.520;19.016;2022-08-14T06:56:52;6.35;;;3.10;;
42288;SDS011;30230;47.520;19.016;2022-08-14T06:58:52;6.72;;;3.97;;
42288;SDS011;30230;47.520;19.016;2022-08-14T07:00:53;4.82;;;2.60;;
42288;SDS011;30230;47.520;19.016;2022-08-14T07:03:12;5.07;;;3.03;;
42288;SDS011;30230;47.520;19.016;2022-08-14T07:05:31;4.38;;;2.80;;
42288;SDS011;30230;47.520;19.016;2022-08-14T07:07:41;6.18;;;2.97;;
42288;SDS011;30230;47.520;19.016;2022-08-14T07:09:41;3.97;;;2.67;;
42288;SDS011;30230;47.520;19.016;2022-08-14T07:11:42;5.50;;;3.22;;
42288;SDS011;30230;47.520;19.016;2022-08-14T07:13:43;4.35;;;2.83;;
42288;SDS011;30230;47.520;19.016;2022-08-14T07:15:45;6.75;;;2.95;;
42288;SDS011;30230;47.520;19.016;2022-08-14T07:17:49;5.40;;;3.00;;
42288;SDS011;30230;47.520;19.016;2022-08-14T07:19:50;4.22;;;2.67;;
42288;SDS011;30230;47.520;19.016;2022-08-14T07:21:51;4.25;;;2.63;;
42288;SDS011;30230;47.520;19.016;2022-08-14T07:23:51;4.23;;;2.93;;
42288;SDS011;30230;47.520;19.016;2022-08-14T07:25:53;7.47;;;2.90;;
42288;SDS011;30230;47.520;19.016;2022-08-14T07:27:55;3.55;;;2.70;;
42288;SDS011;30230;47.520;19.016;2022-08-14T07:29:56;7.05;;;3.10;;
42288;SDS011;30230;47.520;19.016;2022-08-14T07:31:56;5.25;;;2.83;;
42288;SDS011;30230;47.520;19.016;2022-08-14T07:33:56;6.68;;;2.65;;
42288;SDS011;30230;47.520;19.016;2022-08-14T07:35:58;5.97;;;3.00;;
42288;SDS011;30230;47.520;19.016;2022-08-14T07:38:00;5.40;;;3.22;;
42288;SDS011;30230;47.520;19.016;2022-08-14T07:40:01;5.07;;;2.53;;
42288;SDS011;30230;47.520;19.016;2022-08-14T07:44:03;3.42;;;2.40;;
42288;SDS011;30230;47.520;19.016;2022-08-14T07:46:03;5.07;;;2.75;;
42288;SDS011;30230;47.520;19.016;2022-08-14T07:48:04;5.70;;;3.43;;
42288;SDS011;30230;47.520;19.016;2022-08-14T07:50:15;4.60;;;2.87;;
42288;SDS011;30230;47.520;19.016;2022-08-14T07:52:17;5.93;;;3.35;;
42288;SDS011;30230;47.520;19.016;2022-08-14T07:54:18;13.63;;;3.25;;
42288;SDS011;30230;47.520;19.016;2022-08-14T07:56:18;5.50;;;2.90;;
42288;SDS011;30230;47.520;19.016;2022-08-14T07:58:18;6.07;;;3.00;;
42288;SDS011;30230;47.520;19.016;2022-08-14T08:00:20;4.10;;;2.70;;
42288;SDS011;30230;47.520;19.016;2022-08-14T08:02:22;3.78;;;2.90;;
42288;SDS011;30230;47.520;19.016;2022-08-14T08:04:25;4.53;;;2.92;;
42288;SDS011;30230;47.520;19.016;2022-08-14T08:06:28;5.93;;;3.20;;
42288;SDS011;30230;47.520;19.016;2022-08-14T08:08:29;5.70;;;3.28;;
42288;SDS011;30230;47.520;19.016;2022-08-14T08:10:30;4.93;;;2.92;;
42288;SDS011;30230;47.520;19.016;2022-08-14T08:12:31;5.70;;;3.07;;
42288;SDS011;30230;47.520;19.016;2022-08-14T08:16:34;5.65;;;3.28;;
42288;SDS011;30230;47.520;19.016;2022-08-14T08:18:37;6.13;;;2.80;;
42288;SDS011;30230;47.520;19.016;2022-08-14T08:20:39;3.93;;;2.73;;
42288;SDS011;30230;47.520;19.016;2022-08-14T08:22:41;5.80;;;3.10;;
42288;SDS011;30230;47.520;19.016;2022-08-14T08:24:42;5.27;;;3.33;;
42288;SDS011;30230;47.520;19.016;2022-08-14T08:26:42;3.83;;;2.93;;
42288;SDS011;30230;47.520;19.016;2022-08-14T08:28:43;4.93;;;2.97;;
42288;SDS011;30230;47.520;19.016;2022-08-14T08:30:55;4.75;;;3.05;;
42288;SDS011;30230;47.520;19.016;2022-08-14T08:32:58;6.57;;;3.55;;
42288;SDS011;30230;47.520;19.016;2022-08-14T08:35:00;5.70;;;3.30;;
42288;SDS011;30230;47.520;19.016;2022-08-14T08:37:01;6.47;;;3.00;;
42288;SDS011;30230;47.520;19.016;2022-08-14T08:39:01;3.57;;;2.83;;
42288;SDS011;30230;47.520;19.016;2022-08-14T08:41:02;5.03;;;3.10;;
42288;SDS011;30230;47.520;19.016;2022-08-14T08:43:06;7.63;;;2.97;;
42288;SDS011;30230;47.520;19.016;2022-08-14T08:45:08;4.95;;;2.65;;
42288;SDS011;30230;47.520;19.016;2022-08-14T08:47:09;5.55;;;3.05;;
42288;SDS011;30230;47.520;19.016;2022-08-14T08:49:10;5.10;;;2.87;;
42288;SDS011;30230;47.520;19.016;2022-08-14T08:51:18;7.73;;;3.30;;
42288;SDS011;30230;47.520;19.016;2022-08-14T08:53:31;5.93;;;3.17;;
42288;SDS011;30230;47.520;19.016;2022-08-14T08:55:37;4.88;;;3.28;;
42288;SDS011;30230;47.520;19.016;2022-08-14T08:57:39;7.28;;;3.13;;
42288;SDS011;30230;47.520;19.016;2022-08-14T08:59:39;6.10;;;2.77;;
42288;SDS011;30230;47.520;19.016;2022-08-14T09:01:40;4.10;;;2.70;;
42288;SDS011;30230;47.520;19.016;2022-08-14T09:03:40;4.80;;;2.73;;
42288;SDS011;30230;47.520;19.016;2022-08-14T09:05:49;8.07;;;3.03;;
42288;SDS011;30230;47.520;19.016;2022-08-14T09:08:14;3.80;;;2.65;;
42288;SDS011;30230;47.520;19.016;2022-08-14T09:10:19;4.88;;;3.13;;
42288;SDS011;30230;47.520;19.016;2022-08-14T09:12:19;3.67;;;2.40;;
42288;SDS011;30230;47.520;19.016;2022-08-14T09:14:24;4.50;;;2.92;;
42288;SDS011;30230;47.520;19.016;2022-08-14T09:16:28;4.45;;;2.45;;
42288;SDS011;30230;47.520;19.016;2022-08-14T09:18:28;5.33;;;3.00;;
42288;SDS011;30230;47.520;19.016;2022-08-14T09:20:29;3.80;;;2.47;;
42288;SDS011;30230;47.520;19.016;2022-08-14T09:22:30;6.53;;;2.67;;
42288;SDS011;30230;47.520;19.016;2022-08-14T09:24:31;5.20;;;2.75;;
42288;SDS011;30230;47.520;19.016;2022-08-14T09:26:32;5.03;;;2.60;;
42288;SDS011;30230;47.520;19.016;2022-08-14T09:28:33;3.33;;;2.25;;
42288;SDS011;30230;47.520;19.016;2022-08-14T09:30:34;5.63;;;2.90;;
42288;SDS011;30230;47.520;19.016;2022-08-14T09:32:58;6.47;;;2.95;;
42288;SDS011;30230;47.520;19.016;2022-08-14T09:43:58;5.07;;;2.97;;
42288;SDS011;30230;47.520;19.016;2022-08-14T09:46:05;6.60;;;2.78;;
42288;SDS011;30230;47.520;19.016;2022-08-14T09:48:16;4.03;;;2.65;;
42288;SDS011;30230;47.520;19.016;2022-08-14T09:50:28;3.65;;;2.63;;
42288;SDS011;30230;47.520;19.016;2022-08-14T09:52:29;3.78;;;2.63;;
42288;SDS011;30230;47.520;19.016;2022-08-14T09:54:37;5.37;;;2.97;;
42288;SDS011;30230;47.520;19.016;2022-08-14T09:56:48;4.32;;;2.40;;
42288;SDS011;30230;47.520;19.016;2022-08-14T09:58:50;3.35;;;2.22;;
42288;SDS011;30230;47.520;19.016;2022-08-14T10:00:52;5.80;;;2.58;;
42288;SDS011;30230;47.520;19.016;2022-08-14T10:03:00;4.18;;;1.92;;
42288;SDS011;30230;47.520;19.016;2022-08-14T10:05:05;2.92;;;2.08;;
42288;SDS011;30230;47.520;19.016;2022-08-14T10:07:10;5.00;;;2.78;;
42288;SDS011;30230;47.520;19.016;2022-08-14T10:09:10;3.03;;;1.90;;
42288;SDS011;30230;47.520;19.016;2022-08-14T10:11:15;3.63;;;2.58;;
42288;SDS011;30230;47.520;19.016;2022-08-14T10:13:20;2.78;;;2.28;;
42288;SDS011;30230;47.520;19.016;2022-08-14T10:15:24;4.97;;;2.40;;
42288;SDS011;30230;47.520;19.016;2022-08-14T10:17:26;4.97;;;2.03;;
42288;SDS011;30230;47.520;19.016;2022-08-14T10:19:28;10.05;;;2.47;;
42288;SDS011;30230;47.520;19.016;2022-08-14T10:21:29;3.95;;;2.35;;
42288;SDS011;30230;47.520;19.016;2022-08-14T10:23:39;3.23;;;2.13;;
42288;SDS011;30230;47.520;19.016;2022-08-14T10:25:44;4.45;;;2.67;;
42288;SDS011;30230;47.520;19.016;2022-08-14T10:27:55;4.30;;;2.65;;
42288;SDS011;30230;47.520;19.016;2022-08-14T10:29:57;3.40;;;2.35;;
42288;SDS011;30230;47.520;19.016;2022-08-14T10:32:03;4.07;;;2.50;;
42288;SDS011;30230;47.520;19.016;2022-08-14T10:34:06;3.70;;;2.25;;
42288;SDS011;30230;47.520;19.016;2022-08-14T10:36:08;3.15;;;2.20;;
42288;SDS011;30230;47.520;19.016;2022-08-14T10:38:08;3.87;;;2.13;;
42288;SDS011;30230;47.520;19.016;2022-08-14T10:40:09;2.65;;;2.17;;
42288;SDS011;30230;47.520;19.016;2022-08-14T10:42:11;4.05;;;2.25;;
42288;SDS011;30230;47.520;19.016;2022-08-14T10:44:14;3.90;;;2.08;;
42288;SDS011;30230;47.520;19.016;2022-08-14T10:46:17;2.53;;;1.80;;
42288;SDS011;30230;47.520;19.016;2022-08-14T10:48:18;2.80;;;1.75;;
42288;SDS011;30230;47.520;19.016;2022-08-14T10:50:31;4.13;;;1.97;;
42288;SDS011;30230;47.520;19.016;2022-08-14T10:52:33;3.70;;;2.20;;
42288;SDS011;30230;47.520;19.016;2022-08-14T10:54:42;3.33;;;1.85;;
42288;SDS011;30230;47.520;19.016;2022-08-14T10:56:43;4.07;;;2.10;;
42288;SDS011;30230;47.520;19.016;2022-08-14T10:58:44;3.90;;;2.10;;
42288;SDS011;30230;47.520;19.016;2022-08-14T11:00:53;3.10;;;1.60;;
42288;SDS011;30230;47.520;19.016;2022-08-14T11:03:02;2.05;;;1.67;;
42288;SDS011;30230;47.520;19.016;2022-08-14T11:05:15;2.58;;;1.83;;
42288;SDS011;30230;47.520;19.016;2022-08-14T11:07:17;2.72;;;1.83;;
42288;SDS011;30230;47.520;19.016;2022-08-14T11:09:17;4.10;;;2.40;;
42288;SDS011;30230;47.520;19.016;2022-08-14T11:11:18;3.67;;;2.23;;
42288;SDS011;30230;47.520;19.016;2022-08-14T11:13:26;6.75;;;1.92;;
42288;SDS011;30230;47.520;19.016;2022-08-14T11:15:28;2.80;;;1.90;;
42288;SDS011;30230;47.520;19.016;2022-08-14T11:17:31;3.17;;;2.33;;
42288;SDS011;30230;47.520;19.016;2022-08-14T11:19:35;2.42;;;1.90;;
42288;SDS011;30230;47.520;19.016;2022-08-14T11:21:37;3.15;;;2.20;;
42288;SDS011;30230;47.520;19.016;2022-08-14T11:23:40;3.78;;;2.35;;
42288;SDS011;30230;47.520;19.016;2022-08-14T11:25:42;3.72;;;1.90;;
42288;SDS011;30230;47.520;19.016;2022-08-14T11:27:45;2.35;;;1.70;;
42288;SDS011;30230;47.520;19.016;2022-08-14T11:29:47;3.90;;;2.20;;
42288;SDS011;30230;47.520;19.016;2022-08-14T11:31:50;2.67;;;1.85;;
42288;SDS011;30230;47.520;19.016;2022-08-14T11:33:52;3.08;;;2.00;;
42288;SDS011;30230;47.520;19.016;2022-08-14T11:35:56;3.80;;;2.45;;
42288;SDS011;30230;47.520;19.016;2022-08-14T11:38:01;2.78;;;1.80;;
42288;SDS011;30230;47.520;19.016;2022-08-14T11:40:03;3.00;;;1.75;;
42288;SDS011;30230;47.520;19.016;2022-08-14T11:42:20;3.40;;;1.73;;
42288;SDS011;30230;47.520;19.016;2022-08-14T11:44:23;5.45;;;2.35;;
42288;SDS011;30230;47.520;19.016;2022-08-14T11:46:23;3.00;;;1.77;;
42288;SDS011;30230;47.520;19.016;2022-08-14T11:48:25;5.05;;;2.00;;
42288;SDS011;30230;47.520;19.016;2022-08-14T11:50:28;2.38;;;1.80;;
42288;SDS011;30230;47.520;19.016;2022-08-14T11:52:34;4.25;;;1.92;;
42288;SDS011;30230;47.520;19.016;2022-08-14T11:54:37;3.00;;;2.00;;
42288;SDS011;30230;47.520;19.016;2022-08-14T11:56:39;3.67;;;1.90;;
42288;SDS011;30230;47.520;19.016;2022-08-14T11:58:42;3.22;;;2.20;;
42288;SDS011;30230;47.520;19.016;2022-08-14T12:00:54;2.72;;;1.85;;
42288;SDS011;30230;47.520;19.016;2022-08-14T12:03:00;3.25;;;1.77;;
42288;SDS011;30230;47.520;19.016;2022-08-14T12:05:01;2.60;;;2.00;;
42288;SDS011;30230;47.520;19.016;2022-08-14T12:07:05;3.20;;;1.95;;
42288;SDS011;30230;47.520;19.016;2022-08-14T12:09:06;7.03;;;2.53;;
42288;SDS011;30230;47.520;19.016;2022-08-14T12:11:07;3.47;;;2.13;;
42288;SDS011;30230;47.520;19.016;2022-08-14T12:13:13;3.70;;;2.25;;
42288;SDS011;30230;47.520;19.016;2022-08-14T12:15:15;3.25;;;2.25;;
42288;SDS011;30230;47.520;19.016;2022-08-14T12:17:27;6.57;;;2.30;;
42288;SDS011;30230;47.520;19.016;2022-08-14T12:19:38;3.60;;;2.05;;
42288;SDS011;30230;47.520;19.016;2022-08-14T12:21:53;3.38;;;2.22;;
42288;SDS011;30230;47.520;19.016;2022-08-14T12:24:03;3.60;;;2.27;;
42288;SDS011;30230;47.520;19.016;2022-08-14T12:26:07;2.83;;;2.17;;
42288;SDS011;30230;47.520;19.016;2022-08-14T12:28:09;2.83;;;2.03;;